Time;durP1;ratioP1;P1;durP2;ratioP2;P2;SDS_P1;SDS_P2;PMS_P1;PMS_P2;Temp;Humidity;BMP_temperature;BMP_pressure;BME280_temperature;BME280_humidity;BME280_pressure;Samples;Min_cycle;Max_cycle;Signal;HPM_P1;HPM_P2
2022/02/27 00:01:46;;;;;;;3.67;1.35;;;;;;;-1.85;100.00;95806.28;4918844;29;20024;-60
2022/02/27 00:04:18;;;;;;;5.30;1.70;;;;;;;-1.85;100.00;95810.72;4918753;29;20039;-62
2022/02/27 00:06:51;;;;;;;6.43;1.45;;;;;;;-1.87;100.00;95807.44;4918452;29;20032;-65
2022/02/27 00:09:28;;;;;;;2.90;1.40;;;;;;;-1.89;100.00;95794.50;4918699;29;20119;-60
2022/02/27 00:11:56;;;;;;;4.03;1.23;;;;;;;-1.83;100.00;95798.25;4932725;29;20435;-58
2022/02/27 00:14:28;;;;;;;3.80;1.50;;;;;;;-1.81;100.00;95796.28;4918416;29;20040;-60
2022/02/27 00:17:07;;;;;;;7.60;1.60;;;;;;;-1.81;100.00;95781.34;4918539;29;20051;-60
2022/02/27 00:19:32;;;;;;;7.25;1.73;;;;;;;-1.83;100.00;95777.25;4918470;29;20036;-59
2022/02/27 00:22:13;;;;;;;5.70;1.50;;;;;;;-1.82;100.00;95784.94;4918441;29;20017;-61
2022/02/27 00:24:40;;;;;;;4.32;1.13;;;;;;;-1.81;100.00;95772.63;4918414;29;20111;-59
2022/02/27 00:27:06;;;;;;;4.90;1.40;;;;;;;-1.81;100.00;95772.63;4918379;29;20028;-60
2022/02/27 00:29:31;;;;;;;7.07;1.67;;;;;;;-1.79;100.00;95776.72;4932811;29;20115;-62
2022/02/27 00:31:56;;;;;;;5.15;1.42;;;;;;;-1.81;100.00;95760.31;4918066;29;20024;-61
2022/02/27 00:34:22;;;;;;;2.78;1.33;;;;;;;-1.86;100.00;95769.69;4932875;29;20126;-60
2022/02/27 00:36:50;;;;;;;8.13;1.73;;;;;;;-1.90;100.00;95760.53;4918120;29;20032;-59
2022/02/27 00:39:21;;;;;;;6.25;1.35;;;;;;;-1.88;100.00;95769.88;4918239;29;20063;-61
2022/02/27 00:41:49;;;;;;;7.25;1.65;;;;;;;-1.88;100.00;95775.13;4918101;29;20028;-61
2022/02/27 00:44:14;;;;;;;7.60;1.40;;;;;;;-1.89;100.00;95762.97;4916554;29;20452;-62
2022/02/27 00:46:43;;;;;;;7.30;1.58;;;;;;;-1.90;100.00;95766.59;4932281;29;20135;-61
2022/02/27 00:49:08;;;;;;;2.05;1.27;;;;;;;-1.91;100.00;95764.97;4918020;29;20042;-62
2022/02/27 00:51:33;;;;;;;4.78;1.45;;;;;;;-1.92;100.00;95758.09;4932373;28;20020;-62
2022/02/27 00:54:07;;;;;;;6.85;1.35;;;;;;;-1.86;100.00;95744.25;4917920;29;20036;-61
2022/02/27 00:56:35;;;;;;;4.72;1.55;;;;;;;-1.88;100.00;95745.41;4917786;29;20035;-62
2022/02/27 00:59:01;;;;;;;6.20;1.63;;;;;;;-1.89;100.00;95746.41;4917696;29;20432;-62
2022/02/27 01:01:33;;;;;;;3.83;1.30;;;;;;;-1.94;100.00;95748.75;4917754;29;20024;-62
2022/02/27 01:04:09;;;;;;;2.67;1.00;;;;;;;-1.95;100.00;95741.88;4917636;29;20084;-62
2022/02/27 01:06:34;;;;;;;3.78;1.60;;;;;;;-1.90;100.00;95744.78;4917629;29;20102;-63
2022/02/27 01:09:04;;;;;;;3.72;1.27;;;;;;;-1.95;100.00;95742.69;4917661;29;20551;-62
2022/02/27 01:11:33;;;;;;;5.75;1.38;;;;;;;-1.94;100.00;95733.81;4916232;29;20028;-62
2022/02/27 01:14:05;;;;;;;6.00;1.67;;;;;;;-1.97;100.00;95738.56;4916267;29;20051;-62
2022/02/27 01:16:33;;;;;;;7.93;1.60;;;;;;;-1.93;100.00;95726.75;4917430;29;20419;-62
2022/02/27 01:19:01;;;;;;;6.75;1.60;;;;;;;-1.93;100.00;95730.19;4917447;29;20060;-62
2022/02/27 01:21:30;;;;;;;7.25;1.70;;;;;;;-1.94;100.00;95727.75;4931959;29;20024;-62
2022/02/27 01:23:56;;;;;;;5.75;1.58;;;;;;;-1.91;100.00;95733.47;4931679;29;20034;-63
2022/02/27 01:26:22;;;;;;;3.60;1.58;;;;;;;-1.87;100.00;95729.50;4917245;29;20034;-62
2022/02/27 01:28:52;;;;;;;4.32;1.55;;;;;;;-1.90;100.00;95724.59;4931786;29;20048;-62
2022/02/27 01:31:20;;;;;;;4.50;1.50;;;;;;;-1.94;100.00;95723.31;4932120;29;20038;-62
2022/02/27 01:33:52;;;;;;;6.78;1.63;;;;;;;-2.00;100.00;95726.59;4917115;29;20445;-63
2022/02/27 01:36:17;;;;;;;5.43;1.63;;;;;;;-2.00;100.00;95725.78;4916932;29;20107;-63
2022/02/27 01:38:46;;;;;;;3.88;1.40;;;;;;;-2.04;100.00;95725.31;4917303;29;20182;-62
2022/02/27 01:41:12;;;;;;;6.00;1.55;;;;;;;-2.07;100.00;95723.03;4931124;29;20098;-63
2022/02/27 01:43:42;;;;;;;4.45;1.40;;;;;;;-2.10;100.00;95713.69;4916222;29;20036;-62
2022/02/27 01:46:10;;;;;;;6.82;1.65;;;;;;;-2.11;100.00;95721.75;4916500;29;20083;-61
2022/02/27 01:48:39;;;;;;;5.40;1.45;;;;;;;-2.13;100.00;95721.09;4916767;29;20035;-62
2022/02/27 01:51:04;;;;;;;5.30;1.63;;;;;;;-2.14;100.00;95720.28;4915343;29;20443;-61
2022/02/27 01:53:30;;;;;;;4.88;1.52;;;;;;;-2.14;100.00;95722.91;4916808;29;20063;-60
2022/02/27 01:55:55;;;;;;;5.50;1.85;;;;;;;-2.16;100.00;95718.81;4931280;28;20027;-61
2022/02/27 01:58:30;;;;;;;3.70;1.42;;;;;;;-2.20;100.00;95723.56;4916779;29;20471;-61
2022/02/27 02:00:58;;;;;;;2.58;1.20;;;;;;;-2.11;100.00;95714.69;4915473;29;20075;-58
2022/02/27 02:03:24;;;;;;;4.25;1.27;;;;;;;-2.08;100.00;95714.34;4916544;29;20036;-60
2022/02/27 02:05:53;;;;;;;5.07;1.40;;;;;;;-2.05;100.00;95724.50;4916638;29;20032;-58
2022/02/27 02:08:28;;;;;;;7.50;1.45;;;;;;;-2.09;100.00;95714.50;4916701;29;20032;-60
2022/02/27 02:10:59;;;;;;;8.50;2.08;;;;;;;-2.12;100.00;95723.56;4916526;29;20024;-58
2022/02/27 02:13:27;;;;;;;4.47;1.33;;;;;;;-2.17;100.00;95723.25;4916593;29;20403;-57
2022/02/27 02:15:59;;;;;;;6.50;1.52;;;;;;;-2.20;100.00;95714.88;4916265;29;20024;-61
2022/02/27 02:18:24;;;;;;;5.78;1.45;;;;;;;-2.25;100.00;95715.41;4931102;28;20028;-54
2022/02/27 02:20:55;;;;;;;13.98;1.92;;;;;;;-2.23;100.00;95715.22;4915332;29;20050;-60
2022/02/27 02:23:24;;;;;;;4.68;1.50;;;;;;;-2.29;100.00;95705.41;4916497;29;20020;-57
2022/02/27 02:25:52;;;;;;;6.18;2.10;;;;;;;-2.29;100.00;95716.72;4916441;29;20032;-59
2022/02/27 02:28:17;;;;;;;3.95;1.45;;;;;;;-2.32;100.00;95706.56;4916345;29;20056;-60
2022/02/27 02:30:43;;;;;;;4.60;1.55;;;;;;;-2.32;100.00;95709.19;4930913;29;20111;-59
2022/02/27 02:33:08;;;;;;;4.00;1.65;;;;;;;-2.33;100.00;95712.81;4916091;29;20035;-58
2022/02/27 02:35:45;;;;;;;6.00;1.63;;;;;;;-2.36;100.00;95713.97;4916203;29;20020;-60
2022/02/27 02:38:19;;;;;;;2.78;1.50;;;;;;;-2.42;100.00;95706.75;4931030;29;20568;-58
2022/02/27 02:40:45;;;;;;;8.07;1.55;;;;;;;-2.44;100.00;95697.44;4916283;29;20032;-60
2022/02/27 02:43:13;;;;;;;2.75;1.50;;;;;;;-2.47;100.00;95698.59;4916135;29;20869;-55
2022/02/27 02:45:38;;;;;;;6.78;1.50;;;;;;;-2.48;100.00;95704.84;4915979;29;20123;-56
2022/02/27 02:48:07;;;;;;;3.65;1.40;;;;;;;-2.48;100.00;95699.59;4916182;29;20059;-60
2022/02/27 02:50:32;;;;;;;3.10;1.40;;;;;;;-2.46;100.00;95694.16;4930710;29;20095;-56
2022/02/27 02:53:15;;;;;;;4.93;1.30;;;;;;;-2.40;100.00;95693.47;4918632;29;20040;-58
2022/02/27 02:55:40;;;;;;;;;;;;;;;-2.39;100.00;95692.47;4920420;29;20499;-55
2022/02/27 02:58:06;;;;;;;11.68;1.80;;;;;;;-2.43;100.00;95692.00;4920134;29;19911;-56
2022/02/27 03:00:31;;;;;;;2.20;1.27;;;;;;;-2.43;100.00;95696.44;4920037;29;20036;-57
2022/02/27 03:03:03;;;;;;;4.22;1.60;;;;;;;-2.45;100.00;95691.38;4920019;29;20030;-57
2022/02/27 03:05:35;;;;;;;5.07;1.67;;;;;;;-2.51;100.00;95691.22;4918899;29;20072;-59
2022/02/27 03:08:00;;;;;;;5.00;1.83;;;;;;;-2.57;100.00;95692.72;4918420;29;20300;-56
2022/02/27 03:10:25;;;;;;;4.20;1.67;;;;;;;-2.61;100.00;95688.78;4919691;29;20059;-58
2022/02/27 03:12:51;;;;;;;10.85;1.80;;;;;;;-2.57;100.00;95684.88;4919769;29;20067;-55
2022/02/27 03:15:16;;;;;;;2.35;1.20;;;;;;;-2.59;100.00;95686.03;4919564;29;20103;-58
2022/02/27 03:17:41;;;;;;;5.18;1.73;;;;;;;-2.67;100.00;95679.81;4919661;29;20372;-58
2022/02/27 03:20:07;;;;;;;4.13;1.30;;;;;;;-2.71;100.00;95682.94;4918397;29;20032;-57
2022/02/27 03:22:32;;;;;;;5.72;1.65;;;;;;;-2.72;100.00;95684.72;4919579;29;20056;-57
2022/02/27 03:25:24;;;;;;;4.47;1.52;;;;;;;-2.75;100.00;95685.06;4919301;29;20031;-54
2022/02/27 03:27:49;;;;;;;3.20;1.40;;;;;;;-2.79;100.00;95675.91;4919455;29;20043;-56
2022/02/27 03:30:15;;;;;;;5.00;1.50;;;;;;;-2.85;100.00;95684.44;4919533;29;20024;-57
2022/02/27 03:32:46;;;;;;;5.70;1.55;;;;;;;-2.90;100.00;95681.50;4919477;29;20044;-54
2022/02/27 03:35:16;;;;;;;4.05;1.30;;;;;;;-2.95;100.00;95683.78;4919252;29;20110;-56
2022/02/27 03:37:44;;;;;;;4.72;1.52;;;;;;;-3.00;100.00;95681.69;4918435;29;20467;-58
2022/02/27 03:40:10;;;;;;;5.47;1.80;;;;;;;-3.06;100.00;95678.91;4919567;29;20028;-55
2022/02/27 03:42:41;;;;;;;9.07;1.58;;;;;;;-3.09;100.00;95674.81;4919539;29;20035;-57
2022/02/27 03:45:07;;;;;;;3.67;1.48;;;;;;;-3.14;100.00;95671.88;4933635;29;20119;-55
2022/02/27 03:47:45;;;;;;;6.75;1.75;;;;;;;-3.20;100.00;95659.44;4919280;29;20047;-58
2022/02/27 03:50:13;;;;;;;5.63;1.70;;;;;;;-3.26;100.00;95675.81;4919289;29;20020;-57
2022/02/27 03:52:39;;;;;;;3.28;1.48;;;;;;;-3.28;100.00;95677.78;4917910;29;20032;-61
2022/02/27 03:55:10;;;;;;;6.32;1.75;;;;;;;-3.32;100.00;95664.19;4919081;29;20042;-58
2022/02/27 03:57:35;;;;;;;6.78;1.45;;;;;;;-3.34;100.00;95670.59;4919145;29;20047;-60
2022/02/27 04:00:04;;;;;;;3.20;1.48;;;;;;;-3.31;100.00;95665.00;4919116;29;20036;-58
2022/02/27 04:02:29;;;;;;;4.35;1.80;;;;;;;-3.25;100.00;95667.00;4918594;29;20039;-57
2022/02/27 04:04:54;;;;;;;6.13;1.30;;;;;;;-3.19;100.00;95662.88;4918951;29;20028;-58
2022/02/27 04:07:20;;;;;;;6.22;1.58;;;;;;;-3.11;100.00;95668.09;4918886;29;20487;-58
2022/02/27 04:09:51;;;;;;;4.13;1.40;;;;;;;-3.13;100.00;95677.94;4918874;29;20028;-59
2022/02/27 04:12:21;;;;;;;4.28;1.58;;;;;;;-3.21;100.00;95682.19;4933376;29;20020;-57
2022/02/27 04:14:47;;;;;;;3.75;1.42;;;;;;;-3.30;100.00;95671.88;4918645;29;20024;-59
2022/02/27 04:17:12;;;;;;;5.05;1.50;;;;;;;-3.31;100.00;95672.88;4918622;29;20088;-59
2022/02/27 04:19:40;;;;;;;3.47;1.50;;;;;;;-3.30;100.00;95674.50;4918607;29;20387;-60
2022/02/27 04:22:09;;;;;;;4.63;1.77;;;;;;;-3.32;100.00;95677.28;4918539;29;20020;-59
2022/02/27 04:24:34;;;;;;;5.50;1.42;;;;;;;-3.39;100.00;95665.81;4918487;29;20066;-60
2022/02/27 04:26:59;;;;;;;4.90;1.45;;;;;;;-3.45;100.00;95676.97;4918395;29;20052;-60
2022/02/27 04:29:28;;;;;;;4.90;1.40;;;;;;;-3.45;100.00;95679.59;4918337;29;20024;-59
2022/02/27 04:31:59;;;;;;;5.63;1.88;;;;;;;-3.44;100.00;95683.03;4918537;29;20056;-57
2022/02/27 04:34:24;;;;;;;3.83;1.45;;;;;;;-3.42;100.00;95687.13;4918265;29;20112;-59
2022/02/27 04:36:56;;;;;;;6.70;1.75;;;;;;;-3.41;100.00;95688.75;4918210;29;20110;-57
2022/02/27 04:39:24;;;;;;;4.38;1.67;;;;;;;-3.41;100.00;95687.94;4918157;29;20060;-58
2022/02/27 04:41:50;;;;;;;6.05;1.98;;;;;;;-3.40;100.00;95686.94;4916724;29;20110;-59
2022/02/27 04:44:23;;;;;;;4.53;1.60;;;;;;;-3.46;100.00;95680.59;4932728;29;20428;-53
2022/02/27 04:46:48;;;;;;;;;;;;;;;-3.58;100.00;95687.94;4945376;23;20096;-60
2022/02/27 04:49:14;;;;;;;3.92;1.23;;;;;;;-3.66;100.00;95684.50;4919061;29;19919;-62
2022/02/27 04:51:39;;;;;;;6.32;1.83;;;;;;;-3.66;100.00;95690.56;4918800;29;20407;-66
2022/02/27 04:54:05;;;;;;;5.88;1.67;;;;;;;-3.71;100.00;95692.81;4919318;29;20031;-63
2022/02/27 04:56:30;;;;;;;6.90;1.60;;;;;;;-3.74;100.00;95692.34;4918911;29;20288;-61
2022/02/27 04:58:59;;;;;;;5.53;1.70;;;;;;;-3.80;100.00;95694.63;4933626;29;20024;-62
2022/02/27 05:01:27;;;;;;;3.63;1.40;;;;;;;-3.86;100.00;95699.69;4918943;29;20024;-60
2022/02/27 05:03:53;;;;;;;5.18;1.60;;;;;;;-3.88;100.00;95688.56;4919261;29;20122;-62
2022/02/27 05:06:21;;;;;;;9.10;1.60;;;;;;;-3.97;100.00;95687.72;4918667;29;20059;-61
2022/02/27 05:08:49;;;;;;;5.60;1.70;;;;;;;-4.05;100.00;95697.34;4916863;29;20111;-59
2022/02/27 05:11:14;;;;;;;7.22;1.45;;;;;;;-4.11;100.00;95693.56;4918192;29;20032;-60
2022/02/27 05:13:39;;;;;;;12.82;3.10;;;;;;;-4.18;100.00;95698.63;4918461;29;20087;-62
2022/02/27 05:16:05;;;;;;;4.45;1.70;;;;;;;-4.29;100.00;95700.69;4917357;29;20031;-60
2022/02/27 05:18:36;;;;;;;3.75;1.83;;;;;;;-4.36;100.00;95705.72;4918104;29;20028;-59
2022/02/27 05:21:01;;;;;;;2.97;1.45;;;;;;;-4.35;100.00;95704.75;4918005;29;20055;-59
2022/02/27 05:23:30;;;;;;;4.80;1.55;;;;;;;-4.36;100.00;95708.34;4917512;29;20052;-60
2022/02/27 05:25:58;;;;;;;4.07;1.50;;;;;;;-4.38;100.00;95715.53;4917262;29;20107;-61
2022/02/27 05:28:24;;;;;;;5.63;1.60;;;;;;;-4.46;100.00;95715.50;4916308;29;20444;-60
2022/02/27 05:30:50;;;;;;;7.03;1.90;;;;;;;-4.54;100.00;95716.28;4917265;29;20062;-62
2022/02/27 05:33:16;;;;;;;6.22;1.67;;;;;;;-4.63;100.00;95721.63;4917102;29;20400;-62
2022/02/27 05:35:41;;;;;;;4.00;1.50;;;;;;;-4.77;100.00;95720.44;4917174;29;20054;-61
2022/02/27 05:38:06;;;;;;;3.05;1.15;;;;;;;-4.93;100.00;95728.97;4917120;29;20546;-61
2022/02/27 05:40:32;;;;;;;4.70;1.77;;;;;;;-5.06;100.00;95720.72;4917448;29;20028;-61
2022/02/27 05:42:57;;;;;;;4.97;1.40;;;;;;;-5.05;100.00;95722.38;4917088;29;20020;-58
2022/02/27 05:45:22;;;;;;;4.50;1.33;;;;;;;-5.00;100.00;95726.13;4916868;29;20047;-63
2022/02/27 05:47:48;;;;;;;7.93;1.75;;;;;;;-4.93;100.00;95731.59;4931806;29;20039;-59
2022/02/27 05:50:13;;;;;;;4.88;1.65;;;;;;;-4.91;100.00;95737.47;4916888;29;20027;-62
2022/02/27 05:52:38;;;;;;;4.20;1.70;;;;;;;-4.88;100.00;95731.13;4916770;29;20035;-60
2022/02/27 05:55:07;;;;;;;5.10;2.10;;;;;;;-4.79;100.00;95735.41;4915579;29;20031;-59
2022/02/27 05:57:32;;;;;;;5.13;1.90;;;;;;;-4.64;100.00;95748.75;4916941;29;20032;-61
2022/02/27 05:59:58;;;;;;;8.27;1.73;;;;;;;-4.58;100.00;95743.69;4916856;29;20035;-58
2022/02/27 06:02:23;;;;;;;4.13;1.55;;;;;;;-4.55;100.00;95751.25;4917016;29;20032;-56
2022/02/27 06:04:48;;;;;;;2.75;1.33;;;;;;;-4.63;100.00;95755.63;4915687;29;20055;-58
2022/02/27 06:07:14;;;;;;;6.05;1.58;;;;;;;-4.72;100.00;95763.41;4916552;29;20036;-59
2022/02/27 06:09:39;;;;;;;3.00;1.40;;;;;;;-4.83;100.00;95755.00;4916636;29;20030;-60
2022/02/27 06:12:05;;;;;;;2.45;1.35;;;;;;;-5.02;100.00;95764.66;4916576;29;20028;-58
2022/02/27 06:14:44;;;;;;;9.75;1.88;;;;;;;-5.19;100.00;95769.94;4931215;29;20024;-58
2022/02/27 06:17:09;;;;;;;8.77;1.65;;;;;;;-5.38;100.00;95766.50;4915211;29;20052;-59
2022/02/27 06:19:34;;;;;;;2.92;1.55;;;;;;;-5.60;100.00;95772.19;4916458;29;20122;-57
2022/02/27 06:22:03;;;;;;;3.75;1.50;;;;;;;-5.72;100.00;95775.97;4916481;29;20472;-59
2022/02/27 06:24:29;;;;;;;5.00;1.83;;;;;;;-5.79;100.00;95790.56;4916472;29;20028;-54
2022/02/27 06:26:54;;;;;;;7.22;2.33;;;;;;;-5.88;100.00;95792.25;4916249;29;20365;-58
2022/02/27 06:29:23;;;;;;;9.48;2.67;;;;;;;-5.94;100.00;95795.50;4931223;28;20387;-55
2022/02/27 06:31:51;;;;;;;5.35;1.60;;;;;;;-6.03;100.00;95807.63;4915110;29;20396;-60
2022/02/27 06:34:16;;;;;;;5.10;1.80;;;;;;;-6.09;100.00;95809.97;4930618;29;20024;-57
2022/02/27 06:36:41;;;;;;;4.80;1.58;;;;;;;-6.16;100.00;95807.97;4916229;29;20028;-54
2022/02/27 06:39:07;;;;;;;6.43;1.52;;;;;;;-6.19;100.00;95812.63;4916362;29;20051;-55
2022/02/27 06:41:32;;;;;;;4.70;1.50;;;;;;;-6.21;100.00;95809.34;4916458;29;20466;-53
2022/02/27 06:43:57;;;;;;;5.18;2.08;;;;;;;-6.23;100.00;95809.50;4916413;29;20032;-55
2022/02/27 06:46:29;;;;;;;7.32;2.33;;;;;;;-6.23;100.00;95816.50;4915950;29;20048;-58
2022/02/27 06:48:58;;;;;;;13.27;2.20;;;;;;;-6.22;100.00;95818.13;4916083;29;20040;-53
2022/02/27 06:51:23;;;;;;;2.90;1.40;;;;;;;-6.19;100.00;95828.25;4930642;29;20020;-57
2022/02/27 06:53:49;;;;;;;6.88;1.77;;;;;;;-6.09;100.00;95820.41;4914877;29;20124;-52
2022/02/27 06:56:14;;;;;;;6.90;1.55;;;;;;;-5.98;100.00;95836.69;4916149;29;20391;-52
2022/02/27 06:58:40;;;;;;;4.60;1.52;;;;;;;-5.86;100.00;95838.13;4916030;29;20028;-52
2022/02/27 07:01:05;;;;;;;3.08;1.42;;;;;;;-5.77;100.00;95833.78;4930618;28;20042;-53
2022/02/27 07:03:30;;;;;;;4.60;1.77;;;;;;;-5.64;100.00;95841.31;4891795;28;20051;-54
2022/02/27 07:05:56;;;;;;;8.63;1.92;;;;;;;-5.54;100.00;95844.66;4916262;29;20055;-52
2022/02/27 07:08:21;;;;;;;6.97;2.30;;;;;;;-5.42;100.00;95842.69;4914921;29;20020;-55
2022/02/27 07:10:46;;;;;;;4.32;1.83;;;;;;;-5.30;100.00;95841.47;4834631;28;20056;-54
2022/02/27 07:13:15;;;;;;;4.97;2.00;;;;;;;-5.19;100.00;95848.28;4908639;29;20032;-52
2022/02/27 07:15:48;;;;;;;3.97;1.95;;;;;;;-5.08;100.00;95856.72;4897016;29;20036;-52
2022/02/27 07:18:13;;;;;;;;;;;;;;;-5.00;100.00;95861.16;4897573;29;20415;-55
2022/02/27 07:20:41;;;;;;;6.15;1.88;;;;;;;-4.96;100.00;95867.75;4895879;29;19912;-52
2022/02/27 07:23:07;;;;;;;9.77;1.95;;;;;;;-4.93;100.00;95870.06;4895788;29;20115;-55
2022/02/27 07:25:32;;;;;;;4.65;1.65;;;;;;;-4.94;100.00;95876.25;4911621;29;20119;-52
2022/02/27 07:28:00;;;;;;;5.03;1.95;;;;;;;-4.87;100.00;95879.91;4895820;29;20384;-52
2022/02/27 07:30:25;;;;;;;3.75;2.03;;;;;;;-4.79;100.00;95885.19;4911306;29;20408;-56
2022/02/27 07:32:51;;;;;;;6.68;2.08;;;;;;;-4.69;100.00;95893.78;4896932;29;20020;-54
2022/02/27 07:35:23;;;;;;;5.40;2.03;;;;;;;-4.54;100.00;95895.88;4866803;28;20493;-58
2022/02/27 07:37:48;;;;;;;3.30;1.70;;;;;;;-4.31;100.00;95896.19;4878907;29;20374;-52
2022/02/27 07:40:16;;;;;;;6.93;2.05;;;;;;;-3.89;100.00;95902.34;4896177;29;20025;-54
2022/02/27 07:42:42;;;;;;;8.80;2.50;;;;;;;-3.53;100.00;95902.97;4874394;29;20533;-57
2022/02/27 07:45:08;;;;;;;12.95;2.75;;;;;;;-3.17;100.00;95894.91;4880450;29;20037;-57
2022/02/27 07:47:36;;;;;;;12.48;2.80;;;;;;;-2.80;100.00;95898.94;4880816;29;20456;-57
2022/02/27 07:50:02;;;;;;;6.15;1.95;;;;;;;-2.46;100.00;95902.22;4880454;29;20031;-55
2022/02/27 07:52:34;;;;;;;5.70;2.00;;;;;;;-2.05;100.00;95889.06;4894141;29;20025;-57
2022/02/27 07:54:59;;;;;;;5.50;2.45;;;;;;;-1.66;100.00;95881.22;4881094;29;20029;-59
2022/02/27 07:57:24;;;;;;;6.82;1.88;;;;;;;-1.27;100.00;95883.88;4880990;29;20025;-64
2022/02/27 07:59:53;;;;;;;9.35;2.63;;;;;;;-0.92;100.00;95879.06;4888742;29;20025;-60
2022/02/27 08:02:18;;;;;;;5.80;1.98;;;;;;;-0.69;100.00;95865.91;4880457;29;20025;-64
2022/02/27 08:04:46;;;;;;;9.18;2.22;;;;;;;-0.44;100.00;95871.81;4886139;29;20020;-63
2022/02/27 08:07:14;;;;;;;5.50;2.03;;;;;;;-0.32;100.00;95854.63;4889093;29;20033;-63
2022/02/27 08:09:39;;;;;;;4.75;2.08;;;;;;;-0.23;100.00;95850.06;4846154;29;20037;-61
2022/02/27 08:12:05;;;;;;;5.20;2.33;;;;;;;-0.15;100.00;95839.47;4893395;29;20556;-63
2022/02/27 08:14:38;;;;;;;4.22;1.80;;;;;;;-0.02;100.00;95829.13;4894705;29;20080;-63
2022/02/27 08:17:03;;;;;;;5.05;1.88;;;;;;;0.14;100.00;95817.59;4879973;29;20076;-63
2022/02/27 08:19:29;;;;;;;7.80;2.15;;;;;;;0.20;100.00;95807.16;4894285;29;20024;-64
2022/02/27 08:21:57;;;;;;;6.93;1.77;;;;;;;0.39;100.00;95800.50;4879541;29;20021;-63
2022/02/27 08:24:22;;;;;;;5.40;2.30;;;;;;;0.47;100.00;95791.69;4879047;29;20056;-66
2022/02/27 08:26:49;;;;;;;6.93;1.90;;;;;;;0.47;100.00;95789.03;4878932;29;20048;-64
2022/02/27 08:29:15;;;;;;;6.07;2.15;;;;;;;0.67;100.00;95776.09;4878549;29;20033;-64
2022/02/27 08:31:42;;;;;;;7.78;2.00;;;;;;;0.71;100.00;95764.97;4876714;29;20456;-64
2022/02/27 08:34:08;;;;;;;8.48;2.13;;;;;;;0.88;100.00;95752.38;4879156;29;20028;-63
2022/02/27 08:36:33;;;;;;;8.88;1.70;;;;;;;0.90;100.00;95752.19;4878802;29;20029;-63
2022/02/27 08:39:02;;;;;;;5.30;1.80;;;;;;;0.94;100.00;95759.53;4878451;29;20029;-63
2022/02/27 08:41:27;;;;;;;7.47;2.22;;;;;;;0.86;100.00;95755.19;4892980;29;20021;-64
2022/02/27 08:43:53;;;;;;;7.80;2.25;;;;;;;1.01;100.00;95764.88;4879163;29;20047;-63
2022/02/27 08:46:18;;;;;;;5.60;2.03;;;;;;;1.12;100.00;95770.47;4878783;29;20511;-64
2022/02/27 08:48:44;;;;;;;4.18;1.88;;;;;;;1.05;100.00;95766.94;4879086;29;20029;-63
2022/02/27 08:51:12;;;;;;;4.82;2.15;;;;;;;1.36;100.00;95773.69;4880171;29;20499;-64
2022/02/27 08:53:38;;;;;;;2.35;1.85;;;;;;;1.31;100.00;95789.31;4878885;29;20029;-63
2022/02/27 08:56:04;;;;;;;8.13;2.05;;;;;;;1.36;100.00;95798.28;4875149;29;20036;-64
2022/02/27 08:58:29;;;;;;;6.95;2.03;;;;;;;1.52;100.00;95804.28;4866625;29;20033;-65
2022/02/27 09:00:55;;;;;;;5.10;2.30;;;;;;;1.87;100.00;95813.91;4873401;29;20044;-65
2022/02/27 09:03:26;;;;;;;3.67;1.92;;;;;;;2.07;100.00;95840.47;4889805;29;20025;-63
2022/02/27 09:05:52;;;;;;;5.10;2.00;;;;;;;2.22;100.00;95848.28;4874853;29;20035;-64
2022/02/27 09:08:18;;;;;;;5.93;2.20;;;;;;;2.40;100.00;95875.03;4874889;29;20648;-62
2022/02/27 09:10:44;;;;;;;5.63;2.03;;;;;;;2.59;100.00;95903.41;4874307;29;20485;-63
2022/02/27 09:13:09;;;;;;;8.25;2.85;;;;;;;2.43;100.00;95937.28;4889914;29;20571;-62
2022/02/27 09:15:35;;;;;;;6.30;2.08;;;;;;;2.74;100.00;95958.03;4875701;29;20104;-62
2022/02/27 09:18:01;;;;;;;6.35;2.28;;;;;;;2.89;100.00;95985.19;4874153;29;20021;-63
2022/02/27 09:20:27;;;;;;;7.63;2.10;;;;;;;3.11;100.00;96015.03;4889205;29;20063;-60
2022/02/27 09:22:52;;;;;;;6.60;2.20;;;;;;;3.27;100.00;96032.44;4873377;29;20117;-62
2022/02/27 09:25:18;;;;;;;4.90;1.95;;;;;;;3.48;100.00;96053.53;4874304;29;20033;-62
2022/02/27 09:27:43;;;;;;;6.47;2.13;;;;;;;3.65;100.00;96068.06;4871269;29;20164;-62
2022/02/27 09:30:09;;;;;;;7.07;2.17;;;;;;;3.47;100.00;96096.88;4874082;29;20104;-63
2022/02/27 09:32:35;;;;;;;4.80;1.95;;;;;;;3.55;100.00;96117.94;4874678;29;20029;-64
2022/02/27 09:35:03;;;;;;;6.80;2.35;;;;;;;3.58;100.00;96138.75;4873846;29;20028;-63
2022/02/27 09:37:29;;;;;;;4.18;2.10;;;;;;;3.50;100.00;96160.09;4881232;29;20116;-66
2022/02/27 09:39:58;;;;;;;4.57;2.20;;;;;;;3.70;100.00;96173.47;4875303;29;20111;-62
2022/02/27 09:42:28;;;;;;;5.28;2.25;;;;;;;3.73;100.00;96181.00;4874387;29;20292;-62
2022/02/27 09:44:54;;;;;;;4.82;1.90;;;;;;;4.03;100.00;96187.72;4878630;29;20045;-63
2022/02/27 09:47:20;;;;;;;9.32;2.28;;;;;;;4.26;100.00;96203.31;4875576;29;20537;-63
2022/02/27 09:49:48;;;;;;;4.47;2.25;;;;;;;4.22;100.00;96220.59;4874391;29;20025;-64
2022/02/27 09:52:19;;;;;;;4.22;1.92;;;;;;;4.04;100.00;96260.09;4881495;29;20494;-63
2022/02/27 09:54:45;;;;;;;2.80;1.85;;;;;;;4.20;100.00;96264.25;4874073;29;20504;-63
2022/02/27 09:57:14;;;;;;;4.30;1.83;;;;;;;4.56;100.00;96278.13;4873548;29;20029;-63
2022/02/27 09:59:41;;;;;;;6.85;2.38;;;;;;;4.41;100.00;96296.00;4874471;29;20491;-63
2022/02/27 10:02:09;;;;;;;9.65;2.15;;;;;;;4.27;100.00;96313.69;4885854;29;20021;-64
2022/02/27 10:04:38;;;;;;;5.88;1.70;;;;;;;4.55;100.00;96318.91;4872154;29;20035;-64
2022/02/27 10:07:15;;;;;;;5.05;2.10;;;;;;;4.68;100.00;96336.75;4889359;29;20036;-64
2022/02/27 10:09:45;;;;;;;5.00;1.80;;;;;;;4.87;100.00;96338.66;4875762;29;20025;-63
2022/02/27 10:12:11;;;;;;;3.10;2.08;;;;;;;4.88;100.00;96347.44;4871467;29;20080;-64
2022/02/27 10:14:36;;;;;;;4.82;2.10;;;;;;;4.50;100.00;96360.31;4878152;29;20523;-63
2022/02/27 10:17:06;;;;;;;6.07;2.10;;;;;;;4.65;100.00;96364.47;4884855;29;20025;-68
2022/02/27 10:19:36;;;;;;;4.00;1.80;;;;;;;4.73;100.00;96389.22;4871351;29;20045;-66
2022/02/27 10:22:03;;;;;;;4.95;1.77;;;;;;;4.50;100.00;96403.59;4872685;29;20120;-64
2022/02/27 10:24:28;;;;;;;3.70;1.52;;;;;;;4.73;100.00;96405.16;4869770;29;20107;-64
2022/02/27 10:27:00;;;;;;;4.22;2.00;;;;;;;4.58;100.00;96422.03;4873594;29;20161;-64
2022/02/27 10:29:26;;;;;;;5.97;1.80;;;;;;;4.50;100.00;96426.66;4873674;29;20502;-66
2022/02/27 10:31:54;;;;;;;3.05;1.67;;;;;;;4.61;100.00;96429.59;4874305;29;20025;-65
2022/02/27 10:34:24;;;;;;;2.20;1.52;;;;;;;4.64;100.00;96423.88;4877142;29;20441;-64
2022/02/27 10:37:04;;;;;;;1.85;1.30;;;;;;;4.99;100.00;96431.84;4874339;29;20500;-65
2022/02/27 10:39:43;;;;;;;2.15;1.50;;;;;;;5.40;100.00;96437.13;4875467;29;20171;-66
2022/02/27 10:42:21;;;;;;;3.15;1.40;;;;;;;5.36;100.00;96451.84;4873155;29;20025;-66
2022/02/27 10:44:58;;;;;;;2.78;1.52;;;;;;;5.69;98.60;96453.78;4875101;29;20048;-64
2022/02/27 10:47:32;;;;;;;6.35;1.50;;;;;;;5.01;95.51;96474.16;4936147;23;20051;-65
2022/02/27 10:50:06;;;;;;;3.65;1.45;;;;;;;5.05;97.68;96468.22;4928571;29;20047;-64
2022/02/27 10:52:32;;;;;;;3.38;1.50;;;;;;;5.38;98.38;96460.41;4931852;29;20028;-65
2022/02/27 10:55:08;;;;;;;2.95;1.70;;;;;;;5.34;98.72;96461.03;4933210;29;20024;-64
2022/02/27 10:57:44;;;;;;;4.05;1.52;;;;;;;5.65;98.85;96442.75;4935027;29;20106;-65
2022/02/27 11:00:30;;;;;;;4.78;1.83;;;;;;;5.74;100.00;96459.31;4933981;29;20486;-64
2022/02/27 11:03:07;;;;;;;4.65;2.03;;;;;;;6.01;100.00;96437.09;4931773;29;20074;-64
2022/02/27 11:05:41;;;;;;;3.42;1.60;;;;;;;5.91;100.00;96443.84;4934772;29;20027;-64
2022/02/27 11:08:14;;;;;;;6.97;2.00;;;;;;;5.72;98.26;96434.75;4947755;28;20035;-64
2022/02/27 11:10:43;;;;;;;4.20;2.10;;;;;;;6.02;100.00;96436.06;4934325;29;20031;-65
2022/02/27 11:13:11;;;;;;;4.70;2.10;;;;;;;6.00;100.00;96427.50;4944980;28;20038;-70
2022/02/27 11:15:37;;;;;;;4.03;2.30;;;;;;;6.07;100.00;96406.19;4936448;29;20027;-64
2022/02/27 11:18:04;;;;;;;5.18;2.50;;;;;;;5.96;100.00;96412.94;4937541;29;20059;-66
2022/02/27 11:20:40;;;;;;;7.05;2.30;;;;;;;5.77;100.00;96411.06;4935432;29;20494;-66
2022/02/27 11:23:06;;;;;;;6.25;2.35;;;;;;;6.22;100.00;96398.03;4935228;29;20023;-66
2022/02/27 11:25:31;;;;;;;4.68;2.00;;;;;;;6.44;100.00;96396.78;4941057;29;20074;-64
2022/02/27 11:28:08;;;;;;;3.97;2.00;;;;;;;6.59;100.00;96397.38;4939186;29;20038;-70
2022/02/27 11:30:39;;;;;;;5.50;2.20;;;;;;;6.78;100.00;96400.22;4936709;29;20028;-66
2022/02/27 11:33:26;;;;;;;4.57;2.17;;;;;;;6.72;100.00;96396.53;4941816;29;20500;-66